createdAt,value
2022-08-25T00:01:39.927Z,22.60
2022-08-25T00:04:11.326Z,22.50
2022-08-25T00:06:44.272Z,22.60
2022-08-25T00:09:15.267Z,22.60
2022-08-25T00:11:44.400Z,22.70
2022-08-25T00:14:17.265Z,22.70
2022-08-25T00:16:46.857Z,22.70
2022-08-25T00:19:17.629Z,22.70
2022-08-25T00:21:47.071Z,22.70
2022-08-25T00:24:17.663Z,22.70
2022-08-25T00:26:51.922Z,22.70
2022-08-25T00:29:22.933Z,22.70
2022-08-25T00:31:52.480Z,22.70
2022-08-25T00:34:24.130Z,22.70
2022-08-25T00:36:53.217Z,22.60
2022-08-25T00:39:23.957Z,22.60
2022-08-25T00:41:55.887Z,22.60
2022-08-25T00:44:27.042Z,22.60
2022-08-25T00:47:00.129Z,22.60
2022-08-25T00:58:14.164Z,22.60
2022-08-25T01:00:46.896Z,22.70
2022-08-25T01:03:15.783Z,22.70
2022-08-25T01:05:45.810Z,22.70
2022-08-25T01:08:16.352Z,22.80
2022-08-25T01:10:46.314Z,22.90
2022-08-25T01:13:21.930Z,22.90
2022-08-25T01:15:54.114Z,22.90
2022-08-25T01:18:23.085Z,22.90
2022-08-25T01:20:53.718Z,23.00
2022-08-25T01:23:23.263Z,23.00
2022-08-25T01:26:01.295Z,23.10
2022-08-25T01:28:29.932Z,23.10
2022-08-25T01:30:58.735Z,23.10
2022-08-25T01:33:27.651Z,23.00
2022-08-25T01:35:57.529Z,22.90
2022-08-25T01:38:25.969Z,22.80
2022-08-25T01:40:54.412Z,22.70
2022-08-25T01:43:33.548Z,22.70
2022-08-25T01:46:02.139Z,22.50
2022-08-25T01:48:30.578Z,22.40
2022-08-25T01:51:00.477Z,22.40
2022-08-25T01:53:33.294Z,22.30
2022-08-25T01:56:10.993Z,22.30
2022-08-25T01:58:41.993Z,22.30
2022-08-25T02:01:15.879Z,22.30
2022-08-25T02:03:46.414Z,22.30
2022-08-25T02:06:21.318Z,22.30
2022-08-25T02:09:01.108Z,22.40
2022-08-25T02:11:30.507Z,22.60
2022-08-25T02:13:59.186Z,22.60
2022-08-25T02:16:31.819Z,22.60
2022-08-25T02:19:00.911Z,22.60
2022-08-25T02:21:31.104Z,22.50
2022-08-25T02:24:00.053Z,22.50
2022-08-25T02:26:29.284Z,22.40
2022-08-25T02:28:58.114Z,22.40
2022-08-25T02:31:27.284Z,22.40
2022-08-25T02:33:57.214Z,22.40
2022-08-25T02:36:25.943Z,22.40
2022-08-25T02:38:56.005Z,22.40
2022-08-25T02:41:31.487Z,22.40
2022-08-25T02:44:01.274Z,22.50
2022-08-25T02:46:31.154Z,22.50
2022-08-25T02:49:00.300Z,22.40
2022-08-25T02:51:30.212Z,22.40
2022-08-25T02:54:02.150Z,22.40
2022-08-25T02:56:31.857Z,22.50
2022-08-25T02:59:00.466Z,22.40
2022-08-25T03:01:29.742Z,22.40
2022-08-25T03:03:59.162Z,22.40
2022-08-25T03:06:28.165Z,22.30
2022-08-25T03:08:57.246Z,22.30
2022-08-25T03:11:27.120Z,22.20
2022-08-25T03:13:56.535Z,22.20
2022-08-25T03:16:27.719Z,22.20
2022-08-25T03:18:58.364Z,22.10
2022-08-25T03:21:30.283Z,22.10
2022-08-25T03:24:01.172Z,22.00
2022-08-25T03:26:48.758Z,22.10
2022-08-25T03:29:18.457Z,22.20
2022-08-25T03:31:47.094Z,22.20
2022-08-25T03:34:16.991Z,22.20
2022-08-25T03:36:45.686Z,22.20
2022-08-25T03:39:15.143Z,22.30
2022-08-25T03:41:45.502Z,22.20
2022-08-25T03:44:14.700Z,22.20
2022-08-25T03:46:45.687Z,22.20
2022-08-25T03:49:16.735Z,22.20
2022-08-25T03:51:47.532Z,22.20
2022-08-25T03:54:17.650Z,22.20
2022-08-25T03:56:47.547Z,22.20
2022-08-25T03:59:16.206Z,22.20
2022-08-25T04:01:46.089Z,22.20
2022-08-25T04:04:16.272Z,22.10
2022-08-25T04:06:45.891Z,22.10
2022-08-25T04:09:14.382Z,22.10
2022-08-25T04:11:45.032Z,22.10
2022-08-25T04:14:16.478Z,22.10
2022-08-25T04:16:46.130Z,22.10
2022-08-25T04:19:15.051Z,22.20
2022-08-25T04:21:44.000Z,22.10
2022-08-25T04:24:13.815Z,22.10
2022-08-25T04:26:44.630Z,22.20
2022-08-25T04:29:17.198Z,22.10
2022-08-25T04:31:48.715Z,22.20
2022-08-25T04:34:30.952Z,22.30
2022-08-25T04:37:02.690Z,22.30
2022-08-25T04:39:34.524Z,22.40
2022-08-25T04:42:03.848Z,22.40
2022-08-25T04:44:33.826Z,22.40
2022-08-25T04:47:03.407Z,22.60
2022-08-25T04:49:32.058Z,22.50
2022-08-25T04:52:00.607Z,22.50
2022-08-25T04:54:29.186Z,22.50
2022-08-25T04:57:05.928Z,22.60
2022-08-25T04:59:35.793Z,22.60
2022-08-25T05:02:05.416Z,22.60
2022-08-25T05:04:35.130Z,22.60
2022-08-25T05:07:05.662Z,22.70
2022-08-25T05:09:34.421Z,22.60
2022-08-25T05:12:03.557Z,22.70
2022-08-25T05:14:32.804Z,22.70
2022-08-25T05:17:02.894Z,22.80
2022-08-25T05:19:31.359Z,22.80
2022-08-25T05:21:59.784Z,22.90
2022-08-25T05:24:29.662Z,23.10
2022-08-25T05:26:58.865Z,23.10
2022-08-25T05:29:27.412Z,23.20
2022-08-25T05:31:56.125Z,23.20
2022-08-25T05:34:26.034Z,23.30
2022-08-25T05:36:54.692Z,23.40
2022-08-25T05:39:23.169Z,23.60
2022-08-25T05:41:55.425Z,23.70
2022-08-25T05:44:23.894Z,23.80
2022-08-25T05:46:52.563Z,23.80
2022-08-25T05:49:21.039Z,24.00
2022-08-25T05:51:50.951Z,24.10
2022-08-25T05:54:19.795Z,24.10
2022-08-25T05:56:48.466Z,24.10
2022-08-25T05:59:16.918Z,24.10
2022-08-25T06:02:02.724Z,24.20
2022-08-25T06:04:31.309Z,24.30
2022-08-25T06:07:01.200Z,24.20
2022-08-25T06:09:29.718Z,24.10
2022-08-25T06:11:58.282Z,24.00
2022-08-25T06:14:27.914Z,24.00
2022-08-25T06:16:56.997Z,23.90
2022-08-25T06:19:25.537Z,24.00
2022-08-25T06:21:56.390Z,24.00
2022-08-25T06:24:27.274Z,24.00
2022-08-25T06:26:57.032Z,24.00
2022-08-25T06:29:25.770Z,24.00
2022-08-25T06:31:54.446Z,23.90
2022-08-25T06:34:24.174Z,23.90
2022-08-25T06:36:53.857Z,23.80
2022-08-25T06:39:22.832Z,23.80
2022-08-25T06:41:57.228Z,23.90
2022-08-25T06:44:28.266Z,24.10
2022-08-25T06:46:57.495Z,24.20
2022-08-25T06:49:31.845Z,24.20
2022-08-25T06:52:04.996Z,24.30
2022-08-25T06:54:33.464Z,24.30
2022-08-25T06:57:03.692Z,24.30
2022-08-25T06:59:32.729Z,24.40
2022-08-25T07:02:01.252Z,24.40
2022-08-25T07:04:31.881Z,24.40
2022-08-25T07:07:00.357Z,24.60
2022-08-25T07:09:29.651Z,24.70
2022-08-25T07:11:58.858Z,24.80
2022-08-25T07:14:28.746Z,24.80
2022-08-25T07:16:57.966Z,24.90
2022-08-25T07:19:28.011Z,25.00
2022-08-25T07:21:56.459Z,25.00
2022-08-25T07:24:25.415Z,25.10
2022-08-25T07:26:54.061Z,25.20
2022-08-25T07:29:31.943Z,25.30
2022-08-25T07:32:03.317Z,25.40
2022-08-25T07:34:51.824Z,25.50
2022-08-25T07:40:14.115Z,25.70
2022-08-25T07:42:43.715Z,25.80
2022-08-25T07:45:13.882Z,26.00
2022-08-25T07:47:45.648Z,26.10
2022-08-25T07:50:14.737Z,26.40
2022-08-25T07:52:43.269Z,26.50
2022-08-25T07:55:12.139Z,26.50
2022-08-25T07:57:48.944Z,26.50
2022-08-25T08:00:24.025Z,26.60
2022-08-25T08:02:54.764Z,26.70
2022-08-25T08:05:23.940Z,26.80
2022-08-25T08:07:52.991Z,26.80
2022-08-25T08:10:47.935Z,27.00
2022-08-25T08:13:17.708Z,27.00
2022-08-25T08:15:48.507Z,27.10
2022-08-25T08:18:18.583Z,27.10
2022-08-25T08:20:48.393Z,27.20
2022-08-25T08:23:17.750Z,27.30
2022-08-25T08:25:46.201Z,27.40
2022-08-25T08:28:14.698Z,27.40
2022-08-25T08:30:53.459Z,27.40
2022-08-25T08:33:26.477Z,27.30
2022-08-25T08:36:05.113Z,27.30
2022-08-25T08:38:34.968Z,27.10
2022-08-25T08:41:54.276Z,26.90
2022-08-25T08:44:27.819Z,26.70
2022-08-25T08:47:04.893Z,26.60
2022-08-25T08:49:50.779Z,26.40
2022-08-25T08:52:24.009Z,26.40
2022-08-25T08:55:01.224Z,26.30
2022-08-25T08:57:40.521Z,26.50
2022-08-25T09:00:10.781Z,26.70
2022-08-25T09:02:51.337Z,26.70
2022-08-25T09:05:25.532Z,26.80
2022-08-25T09:07:57.580Z,26.80
2022-08-25T09:10:29.536Z,26.90
2022-08-25T09:13:05.879Z,26.90
2022-08-25T09:16:06.555Z,27.10
2022-08-25T09:18:51.381Z,27.10
2022-08-25T09:21:32.253Z,27.20
2022-08-25T09:24:16.976Z,27.10
2022-08-25T09:26:58.905Z,27.20
2022-08-25T09:29:37.817Z,27.40
2022-08-25T09:32:08.841Z,27.40
2022-08-25T09:34:39.174Z,27.40
2022-08-25T09:37:09.017Z,27.60
2022-08-25T09:39:39.063Z,27.70
2022-08-25T09:42:07.950Z,27.70
2022-08-25T09:44:43.653Z,27.90
2022-08-25T09:47:22.269Z,27.90
2022-08-25T09:49:54.536Z,27.90
2022-08-25T09:52:37.508Z,27.90
2022-08-25T09:55:32.464Z,27.80
2022-08-25T09:58:01.630Z,27.90
2022-08-25T10:00:38.264Z,28.10
2022-08-25T10:03:13.792Z,28.00
2022-08-25T10:06:01.218Z,27.90
2022-08-25T10:08:39.523Z,28.00
2022-08-25T10:11:13.188Z,28.00
2022-08-25T10:13:45.300Z,28.00
2022-08-25T10:16:25.113Z,27.90
2022-08-25T10:19:04.505Z,27.80
2022-08-25T10:21:33.891Z,27.90
2022-08-25T10:24:05.857Z,27.90
2022-08-25T10:26:49.579Z,27.90
2022-08-25T10:29:31.241Z,28.10
2022-08-25T10:32:10.245Z,28.30
2022-08-25T10:34:51.385Z,28.60
2022-08-25T10:37:34.396Z,28.90
2022-08-25T10:40:17.040Z,29.00
2022-08-25T10:42:58.401Z,29.00
2022-08-25T10:45:47.898Z,29.00
2022-08-25T10:48:36.503Z,29.10
2022-08-25T10:51:19.508Z,29.40
2022-08-25T10:53:59.964Z,29.70
2022-08-25T10:56:40.965Z,29.70
2022-08-25T10:59:22.343Z,29.90
2022-08-25T11:02:24.087Z,30.00
2022-08-25T11:05:01.753Z,30.00
2022-08-25T11:07:35.427Z,30.10
2022-08-25T11:10:09.912Z,30.20
2022-08-25T11:12:45.840Z,30.30
2022-08-25T11:15:21.383Z,30.30
2022-08-25T11:17:56.895Z,30.20
2022-08-25T11:20:30.049Z,30.30
2022-08-25T11:23:13.800Z,30.50
2022-08-25T11:25:45.103Z,30.70
2022-08-25T11:28:19.598Z,30.80
2022-08-25T11:30:52.540Z,30.90
2022-08-25T11:33:21.758Z,30.90
2022-08-25T11:35:54.874Z,30.90
2022-08-25T11:38:37.044Z,31.00
2022-08-25T11:41:19.029Z,31.00
2022-08-25T11:44:08.719Z,31.20
2022-08-25T11:46:50.303Z,31.50
2022-08-25T11:49:48.792Z,31.80
2022-08-25T11:52:43.228Z,32.00
2022-08-25T11:55:14.663Z,32.00
2022-08-25T11:57:50.545Z,32.20
2022-08-25T12:00:41.570Z,32.00
2022-08-25T12:03:52.254Z,32.00
2022-08-25T12:06:28.107Z,32.10
2022-08-25T12:09:20.739Z,32.20
2022-08-25T12:11:58.269Z,32.20
2022-08-25T12:14:52.789Z,32.20
2022-08-25T12:17:37.825Z,32.30
2022-08-25T12:20:09.687Z,32.30
2022-08-25T12:23:05.548Z,32.30
2022-08-25T12:25:47.174Z,32.30
2022-08-25T12:28:48.342Z,32.10
2022-08-25T12:31:27.006Z,32.10
2022-08-25T12:34:12.595Z,32.20
2022-08-25T12:36:56.166Z,32.20
2022-08-25T12:39:32.118Z,32.20
2022-08-25T12:42:04.659Z,32.30
2022-08-25T12:44:40.948Z,32.30
2022-08-25T12:47:28.146Z,32.30
2022-08-25T12:50:33.413Z,32.50
2022-08-25T12:53:12.430Z,32.50
2022-08-25T12:55:46.752Z,32.50
2022-08-25T12:58:15.427Z,32.60
2022-08-25T13:01:00.877Z,32.40
2022-08-25T13:04:01.681Z,32.40
2022-08-25T13:06:54.684Z,32.30
2022-08-25T13:10:00.621Z,32.20
2022-08-25T13:12:35.419Z,32.30
2022-08-25T13:15:04.047Z,32.30
2022-08-25T13:17:35.604Z,32.40
2022-08-25T13:20:19.551Z,32.40
2022-08-25T13:22:57.207Z,32.40
2022-08-25T13:25:32.383Z,32.50
2022-08-25T13:28:04.258Z,32.50
2022-08-25T13:30:35.065Z,32.50
2022-08-25T13:33:18.209Z,32.70
2022-08-25T13:35:52.228Z,32.70
2022-08-25T13:38:21.327Z,32.90
2022-08-25T13:40:49.806Z,33.30
2022-08-25T13:43:18.542Z,33.60
2022-08-25T13:45:56.743Z,34.00
2022-08-25T13:48:35.789Z,34.10
2022-08-25T13:51:21.562Z,34.00
2022-08-25T13:53:55.659Z,34.10
2022-08-25T13:56:38.437Z,34.40
2022-08-25T13:59:23.388Z,34.40
2022-08-25T14:01:54.167Z,34.80
2022-08-25T14:04:27.406Z,35.20
2022-08-25T14:07:26.497Z,35.70
2022-08-25T14:09:59.034Z,35.40
2022-08-25T14:12:36.263Z,35.40
2022-08-25T14:15:12.871Z,35.30
2022-08-25T14:17:43.993Z,34.80
2022-08-25T14:20:27.313Z,34.20
2022-08-25T14:22:58.857Z,34.10
2022-08-25T14:25:31.367Z,34.30
2022-08-25T14:28:07.325Z,34.10
2022-08-25T14:30:40.152Z,33.90
2022-08-25T14:33:12.959Z,34.00
2022-08-25T14:35:42.235Z,33.90
2022-08-25T14:38:12.641Z,34.00
2022-08-25T14:40:42.627Z,34.10
2022-08-25T14:43:11.186Z,33.90
2022-08-25T14:45:43.344Z,33.20
2022-08-25T14:48:18.827Z,32.60
2022-08-25T14:50:47.908Z,32.40
2022-08-25T14:53:19.352Z,32.50
2022-08-25T14:55:49.369Z,32.70
2022-08-25T14:58:25.781Z,32.50
2022-08-25T15:00:57.492Z,32.50
2022-08-25T15:03:31.793Z,32.30
2022-08-25T15:06:01.456Z,32.30
2022-08-25T15:08:47.204Z,32.30
2022-08-25T15:11:17.499Z,32.30
2022-08-25T15:13:49.342Z,32.20
2022-08-25T15:16:33.913Z,32.10
2022-08-25T15:19:06.985Z,32.10
2022-08-25T15:21:36.643Z,32.20
2022-08-25T15:24:05.663Z,32.50
2022-08-25T15:26:40.203Z,32.80
2022-08-25T15:29:08.990Z,33.00
2022-08-25T15:31:38.842Z,33.20
2022-08-25T15:34:11.627Z,33.20
2022-08-25T15:36:40.936Z,33.10
2022-08-25T15:39:10.381Z,33.10
2022-08-25T15:41:40.364Z,33.00
2022-08-25T15:44:12.601Z,32.80
2022-08-25T15:46:49.688Z,32.80
2022-08-25T15:49:20.870Z,32.50
2022-08-25T15:51:54.425Z,32.30
2022-08-25T15:54:26.753Z,32.30
2022-08-25T15:56:57.682Z,32.30
2022-08-25T15:59:27.875Z,31.90
2022-08-25T16:01:56.460Z,31.80
2022-08-25T16:04:26.378Z,31.80
2022-08-25T16:06:55.779Z,32.00
2022-08-25T16:09:24.324Z,32.10
2022-08-25T16:11:56.211Z,32.00
2022-08-25T16:14:28.021Z,32.10
2022-08-25T16:16:58.206Z,31.60
2022-08-25T16:19:27.510Z,31.20
2022-08-25T16:21:55.992Z,30.90
2022-08-25T16:24:25.885Z,30.80
2022-08-25T16:27:00.261Z,30.70
2022-08-25T16:29:35.877Z,30.60
2022-08-25T16:32:05.201Z,30.20
2022-08-25T16:34:33.802Z,29.90
2022-08-25T16:37:03.198Z,29.80
2022-08-25T16:39:33.038Z,29.80
2022-08-25T16:42:01.521Z,29.90
2022-08-25T16:44:31.868Z,29.90
2022-08-25T16:47:00.474Z,30.10
2022-08-25T16:49:29.030Z,30.10
2022-08-25T16:51:58.019Z,29.90
2022-08-25T16:54:45.298Z,29.90
2022-08-25T16:57:15.907Z,30.00
2022-08-25T16:59:45.773Z,29.80
2022-08-25T17:02:14.384Z,29.80
2022-08-25T17:04:42.921Z,29.80
2022-08-25T17:07:14.245Z,29.70
2022-08-25T17:09:53.183Z,29.70
2022-08-25T17:12:21.621Z,29.60
2022-08-25T17:14:51.536Z,29.60
2022-08-25T17:17:20.133Z,29.50
2022-08-25T17:19:53.364Z,29.30
2022-08-25T17:22:23.494Z,29.20
2022-08-25T17:24:59.102Z,29.10
2022-08-25T17:27:31.160Z,29.00
2022-08-25T17:30:01.052Z,28.90
2022-08-25T17:32:30.378Z,28.90
2022-08-25T17:34:59.534Z,28.80
2022-08-25T17:37:27.984Z,28.90
2022-08-25T17:40:02.980Z,28.80
2022-08-25T17:42:31.898Z,28.80
2022-08-25T17:45:01.748Z,28.70
2022-08-25T17:47:30.376Z,28.70
2022-08-25T17:49:59.368Z,28.60
2022-08-25T17:52:29.235Z,28.50
2022-08-25T17:54:58.897Z,28.30
2022-08-25T17:57:27.726Z,28.20
2022-08-25T17:59:56.178Z,28.10
2022-08-25T18:02:26.222Z,28.00
2022-08-25T18:04:56.989Z,28.00
2022-08-25T18:07:27.232Z,28.00
2022-08-25T18:09:55.672Z,27.90
2022-08-25T18:12:27.511Z,27.90
2022-08-25T18:14:56.247Z,27.80
2022-08-25T18:17:29.141Z,27.70
2022-08-25T18:19:57.873Z,27.60
2022-08-25T18:22:26.794Z,27.50
2022-08-25T18:24:57.170Z,27.40
2022-08-25T18:27:25.642Z,27.30
2022-08-25T18:29:54.646Z,27.20
2022-08-25T18:32:25.968Z,27.30
2022-08-25T18:34:56.491Z,27.20
2022-08-25T18:37:43.077Z,27.40
2022-08-25T18:40:25.641Z,27.40
2022-08-25T18:42:58.158Z,27.40
2022-08-25T18:45:32.422Z,27.40
2022-08-25T18:48:02.475Z,27.20
2022-08-25T18:50:35.670Z,27.20
2022-08-25T18:53:06.147Z,27.10
2022-08-25T18:55:35.584Z,27.20
2022-08-25T18:58:05.840Z,27.20
2022-08-25T19:00:36.414Z,27.20
2022-08-25T19:03:06.314Z,27.10
2022-08-25T19:05:38.611Z,27.00
2022-08-25T19:08:10.464Z,26.90
2022-08-25T19:10:40.653Z,26.90
2022-08-25T19:13:11.034Z,26.80
2022-08-25T19:15:40.950Z,26.80
2022-08-25T19:18:10.883Z,26.80
2022-08-25T19:20:40.982Z,26.80
2022-08-25T19:23:10.025Z,26.90
2022-08-25T19:25:41.739Z,26.90
2022-08-25T19:28:12.549Z,26.80
2022-08-25T19:30:49.830Z,26.70
2022-08-25T19:33:42.848Z,26.60
2022-08-25T19:36:10.711Z,26.40
2022-08-25T19:38:40.005Z,26.30
2022-08-25T19:41:14.002Z,26.20
2022-08-25T19:43:55.582Z,26.20
2022-08-25T19:46:32.992Z,26.30
2022-08-25T19:49:08.037Z,26.40
2022-08-25T19:51:39.960Z,26.40
2022-08-25T19:54:10.233Z,26.40
2022-08-25T19:56:53.623Z,26.40
2022-08-25T19:59:23.412Z,26.40
2022-08-25T20:01:51.988Z,26.30
2022-08-25T20:04:20.517Z,26.30
2022-08-25T20:06:50.804Z,26.30
2022-08-25T20:09:35.608Z,26.40
2022-08-25T20:12:10.388Z,26.20
2022-08-25T20:14:39.259Z,26.10
2022-08-25T20:17:14.686Z,26.10
2022-08-25T20:19:54.307Z,26.00
2022-08-25T20:22:26.457Z,25.90
2022-08-25T20:24:57.809Z,25.80
2022-08-25T20:27:33.429Z,25.90
2022-08-25T20:30:03.238Z,25.90
2022-08-25T20:32:33.094Z,26.00
2022-08-25T20:35:02.196Z,26.00
2022-08-25T20:37:33.794Z,25.90
2022-08-25T20:40:02.891Z,25.90
2022-08-25T20:42:31.626Z,25.90
2022-08-25T20:45:00.356Z,25.80
2022-08-25T20:47:29.940Z,25.80
2022-08-25T20:50:04.502Z,25.80
2022-08-25T20:52:39.198Z,25.80
2022-08-25T20:55:12.495Z,25.80
2022-08-25T20:57:41.629Z,25.70
2022-08-25T21:00:11.706Z,25.70
2022-08-25T21:02:40.223Z,25.60
2022-08-25T21:05:09.388Z,25.50
2022-08-25T21:07:39.316Z,25.50
2022-08-25T21:10:10.547Z,25.50
2022-08-25T21:12:39.382Z,25.50
2022-08-25T21:15:10.001Z,25.50
2022-08-25T21:17:38.637Z,25.40
2022-08-25T21:20:08.491Z,25.30
2022-08-25T21:22:39.898Z,25.30
2022-08-25T21:25:09.869Z,25.10
2022-08-25T21:27:39.199Z,25.10
2022-08-25T21:30:09.272Z,25.20
2022-08-25T21:32:37.883Z,25.20
2022-08-25T21:35:07.903Z,25.20
2022-08-25T21:37:36.625Z,25.30
2022-08-25T21:40:08.765Z,25.30
2022-08-25T21:42:37.383Z,25.20
2022-08-25T21:45:07.666Z,25.10
2022-08-25T21:47:42.784Z,25.30
2022-08-25T21:50:12.659Z,25.40
2022-08-25T21:52:41.228Z,25.40
2022-08-25T21:55:15.693Z,25.50
2022-08-25T21:57:45.770Z,25.50
2022-08-25T22:00:15.218Z,25.30
2022-08-25T22:02:46.040Z,25.30
2022-08-25T22:05:15.414Z,25.30
2022-08-25T22:07:45.142Z,25.30
2022-08-25T22:10:16.413Z,25.40
2022-08-25T22:12:47.000Z,25.30
2022-08-25T22:15:17.754Z,25.30
2022-08-25T22:17:48.082Z,25.30
2022-08-25T22:20:18.126Z,25.30
2022-08-25T22:22:46.850Z,25.10
2022-08-25T22:25:16.922Z,25.10
2022-08-25T22:27:45.383Z,25.10
2022-08-25T22:30:15.267Z,25.10
2022-08-25T22:32:45.600Z,25.10
2022-08-25T22:35:14.455Z,25.10
2022-08-25T22:37:43.177Z,25.00
2022-08-25T22:40:12.686Z,25.00
2022-08-25T22:42:47.384Z,25.00
2022-08-25T22:45:16.549Z,25.00
2022-08-25T22:47:45.203Z,25.00
2022-08-25T22:50:14.539Z,25.00
2022-08-25T22:52:45.887Z,24.90
2022-08-25T22:55:14.467Z,24.90
2022-08-25T22:57:46.317Z,24.90
2022-08-25T23:00:16.550Z,24.90
2022-08-25T23:02:46.215Z,25.00
2022-08-25T23:05:16.114Z,25.00
2022-08-25T23:07:44.707Z,25.00
2022-08-25T23:10:15.436Z,25.00
2022-08-25T23:12:45.734Z,24.90
2022-08-25T23:15:14.737Z,24.80
2022-08-25T23:17:43.251Z,24.80
2022-08-25T23:20:25.908Z,24.70
2022-08-25T23:22:54.706Z,24.60
2022-08-25T23:25:23.617Z,24.40
2022-08-25T23:27:53.576Z,24.40
2022-08-25T23:30:22.463Z,24.40
2022-08-25T23:32:50.936Z,24.40
2022-08-25T23:35:19.547Z,24.40
2022-08-25T23:37:48.667Z,24.40
2022-08-25T23:40:19.248Z,24.40
2022-08-25T23:42:48.303Z,24.30
2022-08-25T23:45:18.639Z,24.30
2022-08-25T23:47:47.152Z,24.30
2022-08-25T23:50:18.400Z,24.20
2022-08-25T23:52:47.790Z,24.20
2022-08-25T23:55:16.281Z,24.20
2022-08-25T23:57:45.175Z,24.20
